sensor_id;sensor_type;location;lat;lon;timestamp;temperature;humidity
26107;DHT22;13866;50.748;12.630;2023-02-22T00:00:21;7.40;99.90
26107;DHT22;13866;50.748;12.630;2023-02-22T00:02:53;7.40;99.90
26107;DHT22;13866;50.748;12.630;2023-02-22T00:05:25;7.40;99.90
26107;DHT22;13866;50.748;12.630;2023-02-22T00:07:50;7.40;99.90
26107;DHT22;13866;50.748;12.630;2023-02-22T00:10:17;7.40;99.90
26107;DHT22;13866;50.748;12.630;2023-02-22T00:12:52;7.40;99.90
26107;DHT22;13866;50.748;12.630;2023-02-22T00:15:20;7.40;99.90
26107;DHT22;13866;50.748;12.630;2023-02-22T00:17:46;7.40;99.90
26107;DHT22;13866;50.748;12.630;2023-02-22T00:20:13;7.40;99.90
26107;DHT22;13866;50.748;12.630;2023-02-22T00:22:43;7.40;99.90
26107;DHT22;13866;50.748;12.630;2023-02-22T00:25:11;7.40;99.90
26107;DHT22;13866;50.748;12.630;2023-02-22T00:27:37;7.40;99.90
26107;DHT22;13866;50.748;12.630;2023-02-22T00:30:04;7.30;99.90
26107;DHT22;13866;50.748;12.630;2023-02-22T00:32:30;7.30;99.90
26107;DHT22;13866;50.748;12.630;2023-02-22T00:34:55;7.30;99.90
26107;DHT22;13866;50.748;12.630;2023-02-22T00:37:21;7.30;99.90
26107;DHT22;13866;50.748;12.630;2023-02-22T00:39:50;7.30;99.90
26107;DHT22;13866;50.748;12.630;2023-02-22T00:42:16;7.30;99.90
26107;DHT22;13866;50.748;12.630;2023-02-22T00:44:43;7.30;99.90
26107;DHT22;13866;50.748;12.630;2023-02-22T00:47:09;7.30;99.90
26107;DHT22;13866;50.748;12.630;2023-02-22T00:49:35;7.30;99.90
26107;DHT22;13866;50.748;12.630;2023-02-22T00:52:01;7.30;99.90
26107;DHT22;13866;50.748;12.630;2023-02-22T00:54:26;7.30;99.90
26107;DHT22;13866;50.748;12.630;2023-02-22T00:56:52;7.20;99.90
26107;DHT22;13866;50.748;12.630;2023-02-22T00:59:18;7.30;99.90
26107;DHT22;13866;50.748;12.630;2023-02-22T01:01:43;7.30;99.90
26107;DHT22;13866;50.748;12.630;2023-02-22T01:04:09;7.30;99.90
26107;DHT22;13866;50.748;12.630;2023-02-22T01:06:34;7.30;99.90
26107;DHT22;13866;50.748;12.630;2023-02-22T01:09:01;7.30;99.90
26107;DHT22;13866;50.748;12.630;2023-02-22T01:11:26;7.20;99.90
26107;DHT22;13866;50.748;12.630;2023-02-22T01:13:52;7.20;99.90
26107;DHT22;13866;50.748;12.630;2023-02-22T01:16:18;7.20;99.90
26107;DHT22;13866;50.748;12.630;2023-02-22T01:18:44;7.20;99.90
26107;DHT22;13866;50.748;12.630;2023-02-22T01:21:10;7.10;99.90
26107;DHT22;13866;50.748;12.630;2023-02-22T01:23:35;7.10;99.90
26107;DHT22;13866;50.748;12.630;2023-02-22T01:26:01;7.10;99.90
26107;DHT22;13866;50.748;12.630;2023-02-22T01:28:30;7.10;99.90
26107;DHT22;13866;50.748;12.630;2023-02-22T01:30:56;7.10;99.90
26107;DHT22;13866;50.748;12.630;2023-02-22T01:33:21;7.20;99.90
26107;DHT22;13866;50.748;12.630;2023-02-22T01:35:46;7.10;99.90
26107;DHT22;13866;50.748;12.630;2023-02-22T01:38:14;7.10;99.90
26107;DHT22;13866;50.748;12.630;2023-02-22T01:40:41;7.10;99.90
26107;DHT22;13866;50.748;12.630;2023-02-22T01:43:27;7.10;99.90
26107;DHT22;13866;50.748;12.630;2023-02-22T01:46:02;7.10;99.90
26107;DHT22;13866;50.748;12.630;2023-02-22T01:48:33;7.20;99.90
26107;DHT22;13866;50.748;12.630;2023-02-22T01:53:41;7.10;99.90
26107;DHT22;13866;50.748;12.630;2023-02-22T01:56:09;7.10;99.90
26107;DHT22;13866;50.748;12.630;2023-02-22T02:05:18;7.00;99.90
26107;DHT22;13866;50.748;12.630;2023-02-22T02:07:44;7.00;99.90
26107;DHT22;13866;50.748;12.630;2023-02-22T02:10:13;7.00;99.90
26107;DHT22;13866;50.748;12.630;2023-02-22T02:12:42;7.00;99.90
26107;DHT22;13866;50.748;12.630;2023-02-22T02:15:34;7.00;99.90
26107;DHT22;13866;50.748;12.630;2023-02-22T02:18:08;7.00;99.90
26107;DHT22;13866;50.748;12.630;2023-02-22T02:34:09;7.10;99.90
26107;DHT22;13866;50.748;12.630;2023-02-22T02:36:46;7.10;99.90
26107;DHT22;13866;50.748;12.630;2023-02-22T02:39:25;7.10;99.90
26107;DHT22;13866;50.748;12.630;2023-02-22T02:41:52;7.10;99.90
26107;DHT22;13866;50.748;12.630;2023-02-22T02:44:35;7.00;99.90
26107;DHT22;13866;50.748;12.630;2023-02-22T02:47:12;7.00;99.90
26107;DHT22;13866;50.748;12.630;2023-02-22T02:52:32;7.00;99.90
26107;DHT22;13866;50.748;12.630;2023-02-22T02:54:58;6.90;99.90
26107;DHT22;13866;50.748;12.630;2023-02-22T02:57:24;7.00;99.90
26107;DHT22;13866;50.748;12.630;2023-02-22T02:59:50;6.90;99.90
26107;DHT22;13866;50.748;12.630;2023-02-22T03:08:00;7.00;99.90
26107;DHT22;13866;50.748;12.630;2023-02-22T03:10:46;7.00;99.90
26107;DHT22;13866;50.748;12.630;2023-02-22T03:13:34;7.00;99.90
26107;DHT22;13866;50.748;12.630;2023-02-22T03:16:20;7.00;99.90
26107;DHT22;13866;50.748;12.630;2023-02-22T03:22:13;7.10;99.90
26107;DHT22;13866;50.748;12.630;2023-02-22T03:24:58;7.10;99.90
26107;DHT22;13866;50.748;12.630;2023-02-22T03:27:32;7.00;99.90
26107;DHT22;13866;50.748;12.630;2023-02-22T03:30:04;7.00;99.90
26107;DHT22;13866;50.748;12.630;2023-02-22T03:32:35;7.00;99.90
26107;DHT22;13866;50.748;12.630;2023-02-22T03:35:11;6.90;99.90
26107;DHT22;13866;50.748;12.630;2023-02-22T03:37:44;6.90;99.90
26107;DHT22;13866;50.748;12.630;2023-02-22T03:40:14;6.90;99.90
26107;DHT22;13866;50.748;12.630;2023-02-22T03:42:45;6.90;99.90
26107;DHT22;13866;50.748;12.630;2023-02-22T03:45:14;7.00;99.90
26107;DHT22;13866;50.748;12.630;2023-02-22T03:47:47;7.00;99.90
26107;DHT22;13866;50.748;12.630;2023-02-22T03:50:21;7.00;99.90
26107;DHT22;13866;50.748;12.630;2023-02-22T03:52:50;7.00;99.90
26107;DHT22;13866;50.748;12.630;2023-02-22T03:55:16;6.90;99.90
26107;DHT22;13866;50.748;12.630;2023-02-22T03:57:46;7.00;99.90
26107;DHT22;13866;50.748;12.630;2023-02-22T04:00:16;7.00;99.90
26107;DHT22;13866;50.748;12.630;2023-02-22T04:02:43;7.00;99.90
26107;DHT22;13866;50.748;12.630;2023-02-22T04:05:09;6.90;99.90
26107;DHT22;13866;50.748;12.630;2023-02-22T04:07:34;6.90;99.90
26107;DHT22;13866;50.748;12.630;2023-02-22T04:10:00;6.90;99.90
26107;DHT22;13866;50.748;12.630;2023-02-22T04:12:33;6.90;99.90
26107;DHT22;13866;50.748;12.630;2023-02-22T04:14:59;6.90;99.90
26107;DHT22;13866;50.748;12.630;2023-02-22T04:17:24;6.90;99.90
26107;DHT22;13866;50.748;12.630;2023-02-22T04:19:50;6.90;99.90
26107;DHT22;13866;50.748;12.630;2023-02-22T04:22:16;7.00;99.90
26107;DHT22;13866;50.748;12.630;2023-02-22T04:24:41;7.00;99.90
26107;DHT22;13866;50.748;12.630;2023-02-22T04:27:06;6.90;99.90
26107;DHT22;13866;50.748;12.630;2023-02-22T04:29:32;6.90;99.90
26107;DHT22;13866;50.748;12.630;2023-02-22T04:31:57;6.90;99.90
26107;DHT22;13866;50.748;12.630;2023-02-22T04:34:23;6.80;99.90
26107;DHT22;13866;50.748;12.630;2023-02-22T04:36:48;6.80;99.90
26107;DHT22;13866;50.748;12.630;2023-02-22T04:39:14;6.80;99.90
26107;DHT22;13866;50.748;12.630;2023-02-22T04:41:39;6.90;99.90
26107;DHT22;13866;50.748;12.630;2023-02-22T04:44:05;6.90;99.90
26107;DHT22;13866;50.748;12.630;2023-02-22T04:46:30;6.90;99.90
26107;DHT22;13866;50.748;12.630;2023-02-22T04:48:56;6.90;99.90
26107;DHT22;13866;50.748;12.630;2023-02-22T04:51:22;6.90;99.90
26107;DHT22;13866;50.748;12.630;2023-02-22T04:53:48;6.90;99.90
26107;DHT22;13866;50.748;12.630;2023-02-22T04:56:15;6.90;99.90
26107;DHT22;13866;50.748;12.630;2023-02-22T04:58:42;6.90;99.90
26107;DHT22;13866;50.748;12.630;2023-02-22T05:01:08;6.90;99.90
26107;DHT22;13866;50.748;12.630;2023-02-22T05:03:36;6.90;99.90
26107;DHT22;13866;50.748;12.630;2023-02-22T05:06:02;6.90;99.90
26107;DHT22;13866;50.748;12.630;2023-02-22T05:08:28;6.80;99.90
26107;DHT22;13866;50.748;12.630;2023-02-22T05:10:53;6.80;99.90
26107;DHT22;13866;50.748;12.630;2023-02-22T05:13:19;6.80;99.90
26107;DHT22;13866;50.748;12.630;2023-02-22T05:15:45;6.80;99.90
26107;DHT22;13866;50.748;12.630;2023-02-22T05:18:10;6.80;99.90
26107;DHT22;13866;50.748;12.630;2023-02-22T05:20:36;6.80;99.90
26107;DHT22;13866;50.748;12.630;2023-02-22T05:23:02;6.80;99.90
26107;DHT22;13866;50.748;12.630;2023-02-22T05:25:28;6.80;99.90
26107;DHT22;13866;50.748;12.630;2023-02-22T05:27:56;6.80;99.90
26107;DHT22;13866;50.748;12.630;2023-02-22T05:30:24;6.80;99.90
26107;DHT22;13866;50.748;12.630;2023-02-22T05:32:50;6.80;99.90
26107;DHT22;13866;50.748;12.630;2023-02-22T05:35:17;6.80;99.90
26107;DHT22;13866;50.748;12.630;2023-02-22T05:37:43;6.80;99.90
26107;DHT22;13866;50.748;12.630;2023-02-22T05:40:08;6.80;99.90
26107;DHT22;13866;50.748;12.630;2023-02-22T05:42:34;6.80;99.90
26107;DHT22;13866;50.748;12.630;2023-02-22T05:45:00;6.80;99.90
26107;DHT22;13866;50.748;12.630;2023-02-22T05:47:25;6.80;99.90
26107;DHT22;13866;50.748;12.630;2023-02-22T05:49:51;6.80;99.90
26107;DHT22;13866;50.748;12.630;2023-02-22T05:52:16;6.80;99.90
26107;DHT22;13866;50.748;12.630;2023-02-22T05:54:42;6.80;99.90
26107;DHT22;13866;50.748;12.630;2023-02-22T05:57:07;6.80;99.90
26107;DHT22;13866;50.748;12.630;2023-02-22T05:59:33;6.80;99.90
26107;DHT22;13866;50.748;12.630;2023-02-22T06:01:58;6.80;99.90
26107;DHT22;13866;50.748;12.630;2023-02-22T06:04:24;6.90;99.90
26107;DHT22;13866;50.748;12.630;2023-02-22T06:06:49;6.80;99.90
26107;DHT22;13866;50.748;12.630;2023-02-22T06:09:15;6.80;99.90
26107;DHT22;13866;50.748;12.630;2023-02-22T06:11:40;6.80;99.90
26107;DHT22;13866;50.748;12.630;2023-02-22T06:14:06;6.80;99.90
26107;DHT22;13866;50.748;12.630;2023-02-22T06:16:32;6.80;99.90
26107;DHT22;13866;50.748;12.630;2023-02-22T06:18:57;6.80;99.90
26107;DHT22;13866;50.748;12.630;2023-02-22T06:21:24;6.80;99.90
26107;DHT22;13866;50.748;12.630;2023-02-22T06:23:49;6.80;99.90
26107;DHT22;13866;50.748;12.630;2023-02-22T06:26:16;6.90;99.90
26107;DHT22;13866;50.748;12.630;2023-02-22T06:28:42;6.90;99.90
26107;DHT22;13866;50.748;12.630;2023-02-22T06:31:07;6.90;99.90
26107;DHT22;13866;50.748;12.630;2023-02-22T06:33:33;6.90;99.90
26107;DHT22;13866;50.748;12.630;2023-02-22T06:35:58;6.90;99.90
26107;DHT22;13866;50.748;12.630;2023-02-22T06:38:25;6.90;99.90
26107;DHT22;13866;50.748;12.630;2023-02-22T06:40:50;6.90;99.90
26107;DHT22;13866;50.748;12.630;2023-02-22T06:43:16;7.00;99.90
26107;DHT22;13866;50.748;12.630;2023-02-22T06:45:42;7.00;99.90
26107;DHT22;13866;50.748;12.630;2023-02-22T06:48:07;7.10;99.90
26107;DHT22;13866;50.748;12.630;2023-02-22T06:50:33;7.00;99.90
26107;DHT22;13866;50.748;12.630;2023-02-22T06:52:59;7.00;99.90
26107;DHT22;13866;50.748;12.630;2023-02-22T06:55:27;7.00;99.90
26107;DHT22;13866;50.748;12.630;2023-02-22T06:57:53;7.00;99.90
26107;DHT22;13866;50.748;12.630;2023-02-22T07:00:20;7.10;99.90
26107;DHT22;13866;50.748;12.630;2023-02-22T07:02:46;7.10;99.90
26107;DHT22;13866;50.748;12.630;2023-02-22T07:05:17;7.10;99.90
26107;DHT22;13866;50.748;12.630;2023-02-22T07:07:43;7.10;99.90
26107;DHT22;13866;50.748;12.630;2023-02-22T07:10:20;7.10;99.90
26107;DHT22;13866;50.748;12.630;2023-02-22T07:12:46;7.20;99.90
26107;DHT22;13866;50.748;12.630;2023-02-22T07:15:13;7.20;99.90
26107;DHT22;13866;50.748;12.630;2023-02-22T07:17:39;7.20;99.90
26107;DHT22;13866;50.748;12.630;2023-02-22T07:20:06;7.30;99.90
26107;DHT22;13866;50.748;12.630;2023-02-22T07:22:31;7.30;99.90
26107;DHT22;13866;50.748;12.630;2023-02-22T07:24:57;7.30;99.90
26107;DHT22;13866;50.748;12.630;2023-02-22T07:27:22;7.40;99.90
26107;DHT22;13866;50.748;12.630;2023-02-22T07:29:48;7.40;99.90
26107;DHT22;13866;50.748;12.630;2023-02-22T07:32:14;7.40;99.90
26107;DHT22;13866;50.748;12.630;2023-02-22T07:34:40;7.50;99.90
26107;DHT22;13866;50.748;12.630;2023-02-22T07:37:06;7.50;99.90
26107;DHT22;13866;50.748;12.630;2023-02-22T07:39:31;7.50;99.90
26107;DHT22;13866;50.748;12.630;2023-02-22T07:41:58;7.60;99.90
26107;DHT22;13866;50.748;12.630;2023-02-22T07:44:24;7.60;99.90
26107;DHT22;13866;50.748;12.630;2023-02-22T07:46:49;7.60;99.90
26107;DHT22;13866;50.748;12.630;2023-02-22T07:49:15;7.70;99.90
26107;DHT22;13866;50.748;12.630;2023-02-22T07:51:41;7.70;99.90
26107;DHT22;13866;50.748;12.630;2023-02-22T07:54:06;7.80;99.90
26107;DHT22;13866;50.748;12.630;2023-02-22T07:56:32;7.80;99.90
26107;DHT22;13866;50.748;12.630;2023-02-22T07:58:58;7.90;99.90
26107;DHT22;13866;50.748;12.630;2023-02-22T08:01:24;7.80;99.90
26107;DHT22;13866;50.748;12.630;2023-02-22T08:03:50;7.80;99.90
26107;DHT22;13866;50.748;12.630;2023-02-22T08:06:17;7.80;99.90
26107;DHT22;13866;50.748;12.630;2023-02-22T08:08:42;7.90;99.90
26107;DHT22;13866;50.748;12.630;2023-02-22T08:11:08;8.00;99.90
26107;DHT22;13866;50.748;12.630;2023-02-22T08:13:34;8.00;99.90
26107;DHT22;13866;50.748;12.630;2023-02-22T08:16:01;8.10;99.90
26107;DHT22;13866;50.748;12.630;2023-02-22T08:18:27;8.10;99.90
26107;DHT22;13866;50.748;12.630;2023-02-22T08:20:53;8.20;99.90
26107;DHT22;13866;50.748;12.630;2023-02-22T08:23:21;8.30;99.90
26107;DHT22;13866;50.748;12.630;2023-02-22T08:25:46;8.30;99.90
26107;DHT22;13866;50.748;12.630;2023-02-22T08:28:15;8.30;99.90
26107;DHT22;13866;50.748;12.630;2023-02-22T08:30:41;8.40;99.90
26107;DHT22;13866;50.748;12.630;2023-02-22T08:33:08;8.40;99.90
26107;DHT22;13866;50.748;12.630;2023-02-22T08:35:34;8.50;99.90
26107;DHT22;13866;50.748;12.630;2023-02-22T08:38:03;8.50;99.90
26107;DHT22;13866;50.748;12.630;2023-02-22T08:40:31;8.60;99.90
26107;DHT22;13866;50.748;12.630;2023-02-22T08:42:57;8.60;99.90
26107;DHT22;13866;50.748;12.630;2023-02-22T08:45:23;8.70;99.90
26107;DHT22;13866;50.748;12.630;2023-02-22T08:47:48;8.80;99.90
26107;DHT22;13866;50.748;12.630;2023-02-22T08:50:23;8.90;99.90
26107;DHT22;13866;50.748;12.630;2023-02-22T08:52:55;9.00;99.90
26107;DHT22;13866;50.748;12.630;2023-02-22T08:55:24;9.10;99.90
26107;DHT22;13866;50.748;12.630;2023-02-22T08:57:50;9.20;99.90
26107;DHT22;13866;50.748;12.630;2023-02-22T09:00:17;9.30;99.90
26107;DHT22;13866;50.748;12.630;2023-02-22T09:02:43;9.30;99.90
26107;DHT22;13866;50.748;12.630;2023-02-22T09:05:09;9.30;99.90
26107;DHT22;13866;50.748;12.630;2023-02-22T09:07:35;9.40;99.90
26107;DHT22;13866;50.748;12.630;2023-02-22T09:10:00;9.50;99.90
26107;DHT22;13866;50.748;12.630;2023-02-22T09:12:26;9.60;99.90
26107;DHT22;13866;50.748;12.630;2023-02-22T09:14:51;9.70;99.90
26107;DHT22;13866;50.748;12.630;2023-02-22T09:17:17;9.80;99.90
26107;DHT22;13866;50.748;12.630;2023-02-22T09:19:42;9.90;99.90
26107;DHT22;13866;50.748;12.630;2023-02-22T09:22:10;9.90;99.90
26107;DHT22;13866;50.748;12.630;2023-02-22T09:24:35;10.00;99.90
26107;DHT22;13866;50.748;12.630;2023-02-22T09:27:01;10.10;99.90
26107;DHT22;13866;50.748;12.630;2023-02-22T09:29:28;10.10;99.90
26107;DHT22;13866;50.748;12.630;2023-02-22T09:31:55;10.20;99.90
26107;DHT22;13866;50.748;12.630;2023-02-22T09:34:22;10.40;99.90
26107;DHT22;13866;50.748;12.630;2023-02-22T09:36:54;10.40;99.90
26107;DHT22;13866;50.748;12.630;2023-02-22T09:39:20;10.50;99.90
26107;DHT22;13866;50.748;12.630;2023-02-22T09:42:15;10.50;99.90
26107;DHT22;13866;50.748;12.630;2023-02-22T09:45:07;10.60;99.90
26107;DHT22;13866;50.748;12.630;2023-02-22T09:47:51;11.10;99.90
26107;DHT22;13866;50.748;12.630;2023-02-22T09:50:24;11.40;99.90
26107;DHT22;13866;50.748;12.630;2023-02-22T09:53:01;11.70;99.90
26107;DHT22;13866;50.748;12.630;2023-02-22T09:55:45;11.60;99.90
26107;DHT22;13866;50.748;12.630;2023-02-22T09:58:24;11.70;99.90
26107;DHT22;13866;50.748;12.630;2023-02-22T10:00:56;11.70;99.90
26107;DHT22;13866;50.748;12.630;2023-02-22T10:03:34;11.60;99.90
26107;DHT22;13866;50.748;12.630;2023-02-22T10:06:05;11.60;99.90
26107;DHT22;13866;50.748;12.630;2023-02-22T10:08:36;11.60;99.90
26107;DHT22;13866;50.748;12.630;2023-02-22T10:13:58;11.60;99.90
26107;DHT22;13866;50.748;12.630;2023-02-22T10:16:49;11.70;99.90
26107;DHT22;13866;50.748;12.630;2023-02-22T10:19:35;11.70;99.90
26107;DHT22;13866;50.748;12.630;2023-02-22T10:22:14;11.70;99.90
26107;DHT22;13866;50.748;12.630;2023-02-22T10:24:58;11.70;99.90
26107;DHT22;13866;50.748;12.630;2023-02-22T10:27:35;11.70;99.90
26107;DHT22;13866;50.748;12.630;2023-02-22T10:30:18;11.80;99.90
26107;DHT22;13866;50.748;12.630;2023-02-22T10:32:51;11.80;99.90
26107;DHT22;13866;50.748;12.630;2023-02-22T10:35:21;11.80;99.90
26107;DHT22;13866;50.748;12.630;2023-02-22T10:37:51;11.80;99.90
26107;DHT22;13866;50.748;12.630;2023-02-22T10:40:22;11.60;99.90
26107;DHT22;13866;50.748;12.630;2023-02-22T10:43:08;11.50;99.90
26107;DHT22;13866;50.748;12.630;2023-02-22T10:45:35;11.60;99.90
26107;DHT22;13866;50.748;12.630;2023-02-22T10:48:05;11.70;99.90
26107;DHT22;13866;50.748;12.630;2023-02-22T10:50:34;11.70;99.90
26107;DHT22;13866;50.748;12.630;2023-02-22T10:53:01;11.70;99.90
26107;DHT22;13866;50.748;12.630;2023-02-22T10:55:27;11.70;99.90
26107;DHT22;13866;50.748;12.630;2023-02-22T10:58:01;11.60;99.90
26107;DHT22;13866;50.748;12.630;2023-02-22T11:00:32;11.70;99.90
26107;DHT22;13866;50.748;12.630;2023-02-22T11:03:19;11.70;99.90
26107;DHT22;13866;50.748;12.630;2023-02-22T11:05:45;11.70;99.90
26107;DHT22;13866;50.748;12.630;2023-02-22T11:10:41;11.80;99.90
26107;DHT22;13866;50.748;12.630;2023-02-22T11:15:59;11.40;99.90
26107;DHT22;13866;50.748;12.630;2023-02-22T11:18:27;11.60;99.90
26107;DHT22;13866;50.748;12.630;2023-02-22T11:21:05;11.40;99.90
26107;DHT22;13866;50.748;12.630;2023-02-22T11:23:33;11.40;99.90
26107;DHT22;13866;50.748;12.630;2023-02-22T11:26:08;11.40;99.90
26107;DHT22;13866;50.748;12.630;2023-02-22T11:28:35;11.50;99.90
26107;DHT22;13866;50.748;12.630;2023-02-22T11:31:23;11.50;99.90
26107;DHT22;13866;50.748;12.630;2023-02-22T11:33:57;11.60;99.90
26107;DHT22;13866;50.748;12.630;2023-02-22T11:36:36;11.40;99.90
26107;DHT22;13866;50.748;12.630;2023-02-22T11:39:19;11.30;99.90
26107;DHT22;13866;50.748;12.630;2023-02-22T11:41:45;11.40;99.90
26107;DHT22;13866;50.748;12.630;2023-02-22T11:44:28;11.40;99.90
26107;DHT22;13866;50.748;12.630;2023-02-22T11:46:56;11.60;99.90
26107;DHT22;13866;50.748;12.630;2023-02-22T11:49:36;11.90;99.90
26107;DHT22;13866;50.748;12.630;2023-02-22T11:52:26;11.70;99.90
26107;DHT22;13866;50.748;12.630;2023-02-22T11:58:16;12.00;99.90
26107;DHT22;13866;50.748;12.630;2023-02-22T12:03:59;12.30;99.90
26107;DHT22;13866;50.748;12.630;2023-02-22T12:12:13;12.60;99.90
26107;DHT22;13866;50.748;12.630;2023-02-22T12:14:53;12.70;99.90
26107;DHT22;13866;50.748;12.630;2023-02-22T12:17:49;12.80;99.90
26107;DHT22;13866;50.748;12.630;2023-02-22T12:20:20;12.70;99.90
26107;DHT22;13866;50.748;12.630;2023-02-22T12:23:19;12.60;99.90
26107;DHT22;13866;50.748;12.630;2023-02-22T12:26:00;12.50;99.90
26107;DHT22;13866;50.748;12.630;2023-02-22T12:31:42;12.80;99.90
26107;DHT22;13866;50.748;12.630;2023-02-22T12:36:47;12.80;99.90
26107;DHT22;13866;50.748;12.630;2023-02-22T12:39:45;12.60;99.90
26107;DHT22;13866;50.748;12.630;2023-02-22T12:42:23;12.80;99.90
26107;DHT22;13866;50.748;12.630;2023-02-22T12:45:03;12.80;99.90
26107;DHT22;13866;50.748;12.630;2023-02-22T12:47:36;12.80;99.90
26107;DHT22;13866;50.748;12.630;2023-02-22T12:50:14;12.80;99.90
26107;DHT22;13866;50.748;12.630;2023-02-22T12:52:57;13.00;99.90
26107;DHT22;13866;50.748;12.630;2023-02-22T12:55:28;13.30;99.90
26107;DHT22;13866;50.748;12.630;2023-02-22T12:58:15;13.10;99.90
26107;DHT22;13866;50.748;12.630;2023-02-22T13:01:10;12.80;99.90
26107;DHT22;13866;50.748;12.630;2023-02-22T13:03:41;12.90;99.90
26107;DHT22;13866;50.748;12.630;2023-02-22T13:06:38;13.00;99.90
26107;DHT22;13866;50.748;12.630;2023-02-22T13:09:17;12.70;99.90
26107;DHT22;13866;50.748;12.630;2023-02-22T13:14:34;13.00;99.90
26107;DHT22;13866;50.748;12.630;2023-02-22T13:25:17;12.50;99.90
26107;DHT22;13866;50.748;12.630;2023-02-22T13:28:08;12.80;99.90
26107;DHT22;13866;50.748;12.630;2023-02-22T13:30:39;13.00;99.90
26107;DHT22;13866;50.748;12.630;2023-02-22T13:33:15;13.00;99.90
26107;DHT22;13866;50.748;12.630;2023-02-22T13:41:34;13.20;99.90
26107;DHT22;13866;50.748;12.630;2023-02-22T13:47:16;13.10;99.90
26107;DHT22;13866;50.748;12.630;2023-02-22T13:52:29;13.00;99.90
26107;DHT22;13866;50.748;12.630;2023-02-22T13:55:00;13.00;99.90
26107;DHT22;13866;50.748;12.630;2023-02-22T13:57:30;13.10;99.90
26107;DHT22;13866;50.748;12.630;2023-02-22T14:08:04;13.30;99.90
26107;DHT22;13866;50.748;12.630;2023-02-22T14:13:11;12.90;99.90
26107;DHT22;13866;50.748;12.630;2023-02-22T14:21:16;13.10;99.90
26107;DHT22;13866;50.748;12.630;2023-02-22T14:23:50;12.90;99.90
26107;DHT22;13866;50.748;12.630;2023-02-22T14:26:34;12.80;99.90
26107;DHT22;13866;50.748;12.630;2023-02-22T14:34:12;12.70;99.90
26107;DHT22;13866;50.748;12.630;2023-02-22T14:41:52;12.60;99.90
26107;DHT22;13866;50.748;12.630;2023-02-22T14:44:23;12.50;99.90
26107;DHT22;13866;50.748;12.630;2023-02-22T14:46:51;12.40;99.90
26107;DHT22;13866;50.748;12.630;2023-02-22T14:49:21;12.50;99.90
26107;DHT22;13866;50.748;12.630;2023-02-22T14:52:00;12.60;99.90
26107;DHT22;13866;50.748;12.630;2023-02-22T14:54:35;12.40;99.90
26107;DHT22;13866;50.748;12.630;2023-02-22T14:57:20;12.30;99.90
26107;DHT22;13866;50.748;12.630;2023-02-22T15:00:03;12.30;99.90
26107;DHT22;13866;50.748;12.630;2023-02-22T15:02:44;12.20;99.90
26107;DHT22;13866;50.748;12.630;2023-02-22T15:05:16;12.20;99.90
26107;DHT22;13866;50.748;12.630;2023-02-22T15:07:53;12.20;99.90
26107;DHT22;13866;50.748;12.630;2023-02-22T15:10:23;12.10;99.90
26107;DHT22;13866;50.748;12.630;2023-02-22T15:12:58;12.20;99.90
26107;DHT22;13866;50.748;12.630;2023-02-22T15:15:34;12.10;99.90
26107;DHT22;13866;50.748;12.630;2023-02-22T15:18:00;12.00;99.90
26107;DHT22;13866;50.748;12.630;2023-02-22T15:20:26;12.00;99.90
26107;DHT22;13866;50.748;12.630;2023-02-22T15:22:58;11.90;99.90
26107;DHT22;13866;50.748;12.630;2023-02-22T15:25:27;11.90;99.90
26107;DHT22;13866;50.748;12.630;2023-02-22T15:27:53;11.90;99.90
26107;DHT22;13866;50.748;12.630;2023-02-22T15:30:26;12.00;99.90
26107;DHT22;13866;50.748;12.630;2023-02-22T15:32:52;11.80;99.90
26107;DHT22;13866;50.748;12.630;2023-02-22T15:35:27;11.90;99.90
26107;DHT22;13866;50.748;12.630;2023-02-22T15:38:01;11.80;99.90
26107;DHT22;13866;50.748;12.630;2023-02-22T15:40:28;11.80;99.90
26107;DHT22;13866;50.748;12.630;2023-02-22T15:43:05;11.80;99.90
26107;DHT22;13866;50.748;12.630;2023-02-22T15:45:33;11.70;99.90
26107;DHT22;13866;50.748;12.630;2023-02-22T15:47:59;11.70;99.90
26107;DHT22;13866;50.748;12.630;2023-02-22T15:50:30;11.60;99.90
26107;DHT22;13866;50.748;12.630;2023-02-22T15:55:40;11.50;99.90
26107;DHT22;13866;50.748;12.630;2023-02-22T16:00:44;11.40;99.90
26107;DHT22;13866;50.748;12.630;2023-02-22T16:03:13;11.40;99.90
26107;DHT22;13866;50.748;12.630;2023-02-22T16:05:51;11.40;99.90
26107;DHT22;13866;50.748;12.630;2023-02-22T16:08:25;11.20;99.90
26107;DHT22;13866;50.748;12.630;2023-02-22T16:11:09;11.20;99.90
26107;DHT22;13866;50.748;12.630;2023-02-22T16:13:39;11.20;99.90
26107;DHT22;13866;50.748;12.630;2023-02-22T16:18:50;11.00;99.90
26107;DHT22;13866;50.748;12.630;2023-02-22T16:21:19;11.00;99.90
26107;DHT22;13866;50.748;12.630;2023-02-22T16:23:51;10.90;99.90
26107;DHT22;13866;50.748;12.630;2023-02-22T16:28:57;10.80;99.90
26107;DHT22;13866;50.748;12.630;2023-02-22T16:31:30;10.70;99.90
26107;DHT22;13866;50.748;12.630;2023-02-22T16:33:58;10.60;99.90
26107;DHT22;13866;50.748;12.630;2023-02-22T16:36:42;10.50;99.90
26107;DHT22;13866;50.748;12.630;2023-02-22T16:39:26;10.50;99.90
26107;DHT22;13866;50.748;12.630;2023-02-22T16:42:02;10.40;99.90
26107;DHT22;13866;50.748;12.630;2023-02-22T16:44:29;10.40;99.90
26107;DHT22;13866;50.748;12.630;2023-02-22T16:46:57;10.40;99.90
26107;DHT22;13866;50.748;12.630;2023-02-22T16:49:22;10.30;99.90
26107;DHT22;13866;50.748;12.630;2023-02-22T16:52:01;10.20;99.90
26107;DHT22;13866;50.748;12.630;2023-02-22T16:54:34;10.10;99.90
26107;DHT22;13866;50.748;12.630;2023-02-22T16:57:02;10.00;99.90
26107;DHT22;13866;50.748;12.630;2023-02-22T16:59:30;10.10;99.90
26107;DHT22;13866;50.748;12.630;2023-02-22T17:01:56;10.00;99.90
26107;DHT22;13866;50.748;12.630;2023-02-22T17:04:24;9.90;99.90
26107;DHT22;13866;50.748;12.630;2023-02-22T17:06:51;9.80;99.90
26107;DHT22;13866;50.748;12.630;2023-02-22T17:09:16;9.80;99.90
26107;DHT22;13866;50.748;12.630;2023-02-22T17:11:44;9.70;99.90
26107;DHT22;13866;50.748;12.630;2023-02-22T17:14:15;9.70;99.90
26107;DHT22;13866;50.748;12.630;2023-02-22T17:16:42;9.70;99.90
26107;DHT22;13866;50.748;12.630;2023-02-22T17:19:15;9.50;99.90
26107;DHT22;13866;50.748;12.630;2023-02-22T17:21:41;9.50;99.90
26107;DHT22;13866;50.748;12.630;2023-02-22T17:24:10;9.40;99.90
26107;DHT22;13866;50.748;12.630;2023-02-22T17:26:36;9.40;99.90
26107;DHT22;13866;50.748;12.630;2023-02-22T17:29:01;9.40;99.90
26107;DHT22;13866;50.748;12.630;2023-02-22T17:31:28;9.30;99.90
26107;DHT22;13866;50.748;12.630;2023-02-22T17:33:56;9.30;99.90
26107;DHT22;13866;50.748;12.630;2023-02-22T17:36:26;9.30;99.90
26107;DHT22;13866;50.748;12.630;2023-02-22T17:38:52;9.20;99.90
26107;DHT22;13866;50.748;12.630;2023-02-22T17:41:17;9.20;99.90
26107;DHT22;13866;50.748;12.630;2023-02-22T17:43:43;9.10;99.90